Time;durP1;ratioP1;P1;durP2;ratioP2;P2;SDS_P1;SDS_P2;PMS_P1;PMS_P2;Temp;Humidity;BMP_temperature;BMP_pressure;BME280_temperature;BME280_humidity;BME280_pressure;Samples;Min_cycle;Max_cycle;Signal;HPM_P1;HPM_P2
2023/11/09 00:00:25;;;;;;;0.80;0.80;;;;;;;;;;6305793;28;20417;-72
2023/11/09 00:03:29;;;;;;;0.75;0.75;;;;;;;;;;6283415;28;20247;-72
2023/11/09 00:06:33;;;;;;;0.80;0.80;;;;;;;;;;6282691;28;20290;-70
2023/11/09 00:09:36;;;;;;;0.80;0.80;;;;;;;;;;6282745;28;20579;-70
2023/11/09 00:12:41;;;;;;;0.75;0.75;;;;;;;;;;6267706;28;20296;-72
2023/11/09 00:15:47;;;;;;;0.90;0.90;;;;;;;;;;6257745;28;20448;-71
2023/11/09 00:18:52;;;;;;;0.93;0.93;;;;;;;;;;6257999;28;20488;-71
2023/11/09 00:21:56;;;;;;;0.90;0.90;;;;;;;;;;6257733;28;20311;-71
2023/11/09 00:25:00;;;;;;;1.80;0.90;;;;;;;;;;6257565;28;20584;-72
2023/11/09 00:28:04;;;;;;;0.90;0.90;;;;;;;;;;6257993;28;20292;-70
2023/11/09 00:31:09;;;;;;;0.80;0.80;;;;;;;;;;6257488;28;20292;-70
2023/11/09 00:34:13;;;;;;;0.95;0.95;;;;;;;;;;6257811;28;20442;-70
2023/11/09 00:37:17;;;;;;;0.93;0.93;;;;;;;;;;6257235;28;20311;-73
2023/11/09 00:40:22;;;;;;;0.90;0.90;;;;;;;;;;6255526;28;20303;-73
2023/11/09 00:43:26;;;;;;;0.90;0.90;;;;;;;;;;6257963;28;20440;-72
2023/11/09 00:46:31;;;;;;;0.98;0.98;;;;;;;;;;6257040;28;20323;-71
2023/11/09 00:49:35;;;;;;;0.80;0.80;;;;;;;;;;6257471;28;20287;-72
2023/11/09 00:52:39;;;;;;;1.10;1.10;;;;;;;;;;6254153;28;20332;-70
2023/11/09 00:55:43;;;;;;;2.08;1.17;;;;;;;;;;6255993;28;20291;-72
2023/11/09 00:58:47;;;;;;;0.93;0.93;;;;;;;;;;6257750;28;20295;-71
2023/11/09 01:01:52;;;;;;;0.90;0.90;;;;;;;;;;6254564;28;20303;-70
2023/11/09 01:04:57;;;;;;;1.00;1.00;;;;;;;;;;6256811;28;20295;-71
2023/11/09 01:08:01;;;;;;;0.90;0.90;;;;;;;;;;6257535;28;20288;-71
2023/11/09 01:11:05;;;;;;;1.00;1.00;;;;;;;;;;6259124;28;20307;-71
2023/11/09 01:14:09;;;;;;;0.93;0.93;;;;;;;;;;6280442;28;20299;-69
2023/11/09 01:17:15;;;;;;;1.02;1.02;;;;;;;;;;6281312;28;20295;-70
2023/11/09 01:20:19;;;;;;;1.10;1.10;;;;;;;;;;6279571;28;20295;-71
2023/11/09 01:23:23;;;;;;;1.10;1.10;;;;;;;;;;6281941;28;20596;-71
2023/11/09 01:26:27;;;;;;;1.08;1.08;;;;;;;;;;6279878;28;20608;-71
2023/11/09 01:29:31;;;;;;;0.98;0.98;;;;;;;;;;6281062;28;20476;-70
2023/11/09 01:32:36;;;;;;;1.17;1.17;;;;;;;;;;6281496;28;20287;-71
2023/11/09 01:35:40;;;;;;;1.15;1.15;;;;;;;;;;6280997;28;20299;-72
2023/11/09 01:38:44;;;;;;;1.20;1.20;;;;;;;;;;6281599;28;20306;-71
2023/11/09 01:41:48;;;;;;;1.17;1.17;;;;;;;;;;6279688;28;20498;-70
2023/11/09 01:44:51;;;;;;;1.40;1.40;;;;;;;;;;6280876;28;20298;-71
2023/11/09 01:47:57;;;;;;;1.20;1.20;;;;;;;;;;6279892;28;20290;-71
2023/11/09 01:51:01;;;;;;;1.40;1.40;;;;;;;;;;6281029;28;20303;-71
2023/11/09 01:54:05;;;;;;;1.38;1.38;;;;;;;;;;6279513;28;20303;-72
2023/11/09 01:57:10;;;;;;;1.30;1.30;;;;;;;;;;6281330;28;20295;-71
2023/11/09 02:00:15;;;;;;;1.17;1.17;;;;;;;;;;6302566;28;20330;-70
2023/11/09 02:03:20;;;;;;;1.48;1.45;;;;;;;;;;6281488;28;20541;-69
2023/11/09 02:06:25;;;;;;;1.45;1.45;;;;;;;;;;6278968;28;20290;-69
2023/11/09 02:09:29;;;;;;;1.52;1.52;;;;;;;;;;6279958;28;20239;-70
2023/11/09 02:12:33;;;;;;;1.45;1.45;;;;;;;;;;6266457;28;20288;-70
2023/11/09 02:15:37;;;;;;;4.57;1.30;;;;;;;;;;6258981;28;20283;-70
2023/11/09 02:18:42;;;;;;;1.70;1.70;;;;;;;;;;6259253;28;20244;-70
2023/11/09 02:21:48;;;;;;;1.60;1.60;;;;;;;;;;6258941;28;20596;-71
2023/11/09 02:24:53;;;;;;;1.70;1.70;;;;;;;;;;6260050;28;20279;-71
2023/11/09 02:27:57;;;;;;;1.50;1.50;;;;;;;;;;6259174;28;20323;-70
2023/11/09 02:31:01;;;;;;;1.70;1.70;;;;;;;;;;6258584;28;20295;-71
2023/11/09 02:34:05;;;;;;;1.65;1.65;;;;;;;;;;6258531;28;20399;-71
2023/11/09 02:37:09;;;;;;;1.92;1.83;;;;;;;;;;6259942;28;20322;-71
2023/11/09 02:40:15;;;;;;;1.48;1.40;;;;;;;;;;6259613;28;20307;-70
2023/11/09 02:43:22;;;;;;;1.58;1.58;;;;;;;;;;6260612;28;20292;-70
2023/11/09 02:46:26;;;;;;;1.60;1.60;;;;;;;;;;6258401;28;20315;-70
2023/11/09 02:49:30;;;;;;;1.63;1.63;;;;;;;;;;6258428;28;20295;-71
2023/11/09 02:52:34;;;;;;;1.77;1.77;;;;;;;;;;6256657;28;20299;-72
2023/11/09 02:55:39;;;;;;;1.95;1.95;;;;;;;;;;6259366;28;20584;-71
2023/11/09 02:58:45;;;;;;;1.70;1.70;;;;;;;;;;6259474;28;20299;-69
2023/11/09 03:01:49;;;;;;;2.08;1.77;;;;;;;;;;6257900;28;20295;-70
2023/11/09 03:04:53;;;;;;;1.75;1.75;;;;;;;;;;6259063;28;20291;-70
2023/11/09 03:07:57;;;;;;;1.63;1.63;;;;;;;;;;6259601;28;20436;-70
2023/11/09 03:11:02;;;;;;;1.80;1.80;;;;;;;;;;6259352;28;20299;-70
2023/11/09 03:14:06;;;;;;;1.80;1.80;;;;;;;;;;6284060;28;20326;-70
2023/11/09 03:17:11;;;;;;;1.80;1.80;;;;;;;;;;6283697;28;20295;-70
2023/11/09 03:20:15;;;;;;;1.42;1.42;;;;;;;;;;6283276;28;20343;-71
2023/11/09 03:23:20;;;;;;;1.63;1.63;;;;;;;;;;6283754;28;20298;-71
2023/11/09 03:26:25;;;;;;;1.55;1.50;;;;;;;;;;6280978;28;20302;-72
2023/11/09 03:29:29;;;;;;;1.45;1.45;;;;;;;;;;6282084;28;20291;-71
2023/11/09 03:32:33;;;;;;;1.48;1.48;;;;;;;;;;6283558;28;20291;-71
2023/11/09 03:35:37;;;;;;;1.65;1.65;;;;;;;;;;6283104;28;20287;-70
2023/11/09 03:38:41;;;;;;;1.40;1.40;;;;;;;;;;6283492;28;20554;-70
2023/11/09 03:41:48;;;;;;;1.42;1.42;;;;;;;;;;6283149;28;20295;-71
2023/11/09 03:44:52;;;;;;;1.70;1.70;;;;;;;;;;6282604;28;20295;-70
2023/11/09 03:47:55;;;;;;;1.85;1.83;;;;;;;;;;6283801;28;20366;-69
2023/11/09 03:50:59;;;;;;;1.80;1.80;;;;;;;;;;6282773;28;20491;-70
2023/11/09 03:54:04;;;;;;;1.75;1.75;;;;;;;;;;6281201;28;20303;-70
2023/11/09 03:57:09;;;;;;;2.58;1.83;;;;;;;;;;6282676;28;20382;-69
2023/11/09 04:00:13;;;;;;;1.70;1.70;;;;;;;;;;6304994;28;20635;-70
2023/11/09 04:03:17;;;;;;;2.00;2.00;;;;;;;;;;6261063;28;20303;-70
2023/11/09 04:06:21;;;;;;;2.28;2.28;;;;;;;;;;6276681;28;20271;-70
2023/11/09 04:09:25;;;;;;;3.15;2.50;;;;;;;;;;6282270;28;20451;-71
2023/11/09 04:12:30;;;;;;;2.92;2.83;;;;;;;;;;6285269;28;20319;-70
2023/11/09 04:15:34;;;;;;;2.67;2.67;;;;;;;;;;6306849;28;20303;-70
2023/11/09 04:18:38;;;;;;;2.78;2.67;;;;;;;;;;6294148;28;20296;-71
2023/11/09 04:21:42;;;;;;;2.67;2.67;;;;;;;;;;6256296;28;20311;-69
2023/11/09 04:24:46;;;;;;;3.33;3.22;;;;;;;;;;6275705;28;20299;-70
2023/11/09 04:27:51;;;;;;;3.88;3.65;;;;;;;;;;6281813;28;20466;-70
2023/11/09 04:30:55;;;;;;;3.83;3.63;;;;;;;;;;6282251;28;20323;-71
2023/11/09 04:34:03;;;;;;;3.33;3.22;;;;;;;;;;6281757;28;20375;-70
2023/11/09 04:37:11;;;;;;;3.75;3.65;;;;;;;;;;6289043;28;20490;-71
2023/11/09 04:40:15;;;;;;;4.03;3.90;;;;;;;;;;6306750;28;20303;-71
2023/11/09 04:43:22;;;;;;;4.60;4.40;;;;;;;;;;6306545;28;20303;-70
2023/11/09 04:46:29;;;;;;;6.72;4.88;;;;;;;;;;6306538;28;20614;-71
2023/11/09 04:49:32;;;;;;;5.63;5.18;;;;;;;;;;6306334;28;20298;-72
2023/11/09 04:52:44;;;;;;;5.72;5.22;;;;;;;;;;6304538;28;20459;-71
2023/11/09 04:55:57;;;;;;;6.22;5.63;;;;;;;;;;6308006;28;20780;-71
2023/11/09 04:59:04;;;;;;;5.35;4.88;;;;;;;;;;6306203;28;20294;-71
2023/11/09 05:08:49;;;;;;;4.53;4.13;;;;;;;;;;6305551;28;20283;-69
2023/11/09 05:11:53;;;;;;;4.60;4.38;;;;;;;;;;6285490;28;20299;-70
2023/11/09 05:15:00;;;;;;;7.13;4.50;;;;;;;;;;6280678;28;20303;-70
2023/11/09 05:18:04;;;;;;;7.43;4.82;;;;;;;;;;6280909;28;20552;-70
2023/11/09 05:21:08;;;;;;;5.78;5.20;;;;;;;;;;6281028;28;20298;-70
2023/11/09 05:24:12;;;;;;;14.45;4.57;;;;;;;;;;6279860;28;20294;-70
2023/11/09 05:27:17;;;;;;;10.00;4.55;;;;;;;;;;6281201;28;20262;-71
2023/11/09 05:30:22;;;;;;;12.25;4.60;;;;;;;;;;6280396;28;20475;-71
2023/11/09 05:33:26;;;;;;;4.97;4.68;;;;;;;;;;6280369;28;20307;-71
2023/11/09 05:36:33;;;;;;;4.15;3.83;;;;;;;;;;6281129;28;20310;-71
2023/11/09 05:39:37;;;;;;;3.72;3.42;;;;;;;;;;6280926;28;20282;-72
2023/11/09 05:42:43;;;;;;;3.55;3.35;;;;;;;;;;6280950;28;20306;-70
2023/11/09 05:45:48;;;;;;;3.80;3.70;;;;;;;;;;6281230;28;20279;-70
2023/11/09 05:48:52;;;;;;;5.63;4.03;;;;;;;;;;6279834;28;20294;-72
2023/11/09 05:51:56;;;;;;;3.40;3.30;;;;;;;;;;6278956;28;20287;-70
2023/11/09 05:55:00;;;;;;;3.83;3.58;;;;;;;;;;6280519;28;20299;-71
2023/11/09 05:58:04;;;;;;;5.40;4.03;;;;;;;;;;6280169;28;20315;-71
2023/11/09 06:01:10;;;;;;;4.15;3.95;;;;;;;;;;6280579;28;20286;-70
2023/11/09 06:04:13;;;;;;;4.35;4.10;;;;;;;;;;6280008;28;20303;-70
2023/11/09 06:07:17;;;;;;;4.07;3.88;;;;;;;;;;6280524;28;20307;-71
2023/11/09 06:10:25;;;;;;;4.88;4.47;;;;;;;;;;6287854;28;20508;-71
2023/11/09 06:13:29;;;;;;;4.18;3.97;;;;;;;;;;6305014;28;20298;-70
2023/11/09 06:16:34;;;;;;;4.45;4.15;;;;;;;;;;6305123;28;20294;-70
2023/11/09 06:19:38;;;;;;;4.60;4.38;;;;;;;;;;6304857;28;20298;-70
2023/11/09 06:22:43;;;;;;;4.28;4.07;;;;;;;;;;6304621;28;20310;-71
2023/11/09 06:25:48;;;;;;;5.03;4.70;;;;;;;;;;6305276;28;20301;-70
2023/11/09 06:28:52;;;;;;;6.00;5.22;;;;;;;;;;6304623;28;20483;-70
2023/11/09 06:31:58;;;;;;;6.15;5.60;;;;;;;;;;6305174;28;20294;-71
2023/11/09 06:35:04;;;;;;;5.85;5.35;;;;;;;;;;6304600;28;20317;-71
2023/11/09 06:38:08;;;;;;;5.43;4.93;;;;;;;;;;6304639;28;20488;-71
2023/11/09 06:41:13;;;;;;;5.43;5.03;;;;;;;;;;6305132;28;20294;-71
2023/11/09 06:44:16;;;;;;;5.55;5.05;;;;;;;;;;6304935;28;20287;-69
2023/11/09 06:47:22;;;;;;;5.45;5.05;;;;;;;;;;6305103;28;20302;-69
2023/11/09 06:50:27;;;;;;;5.38;4.97;;;;;;;;;;6304816;28;20649;-69
2023/11/09 06:53:30;;;;;;;5.20;4.90;;;;;;;;;;6301948;28;20298;-69
2023/11/09 06:56:36;;;;;;;5.50;5.10;;;;;;;;;;6305298;28;20294;-70
2023/11/09 06:59:40;;;;;;;5.97;5.38;;;;;;;;;;6304593;28;20358;-70
2023/11/09 07:02:47;;;;;;;5.35;4.95;;;;;;;;;;6308713;28;20564;-69
2023/11/09 07:05:52;;;;;;;5.88;5.25;;;;;;;;;;6309304;28;20318;-70
2023/11/09 07:08:55;;;;;;;5.38;5.07;;;;;;;;;;6308967;28;20314;-70
2023/11/09 07:12:00;;;;;;;6.28;5.60;;;;;;;;;;6287952;28;20466;-70
2023/11/09 07:15:05;;;;;;;6.18;5.57;;;;;;;;;;6283615;28;20344;-70
2023/11/09 07:18:10;;;;;;;6.75;6.05;;;;;;;;;;6284387;28;20322;-70
2023/11/09 07:21:14;;;;;;;6.68;6.00;;;;;;;;;;6282997;28;20560;-70
2023/11/09 07:24:19;;;;;;;6.68;5.75;;;;;;;;;;6283485;28;20310;-71
2023/11/09 07:27:23;;;;;;;6.13;5.72;;;;;;;;;;6284092;28;20235;-71
2023/11/09 07:30:31;;;;;;;5.43;5.05;;;;;;;;;;6283240;28;20339;-71
2023/11/09 07:33:36;;;;;;;5.40;5.00;;;;;;;;;;6283206;28;20299;-71
2023/11/09 07:36:39;;;;;;;5.80;5.40;;;;;;;;;;6283876;28;20577;-71
2023/11/09 07:39:43;;;;;;;5.57;5.05;;;;;;;;;;6283044;28;20294;-71
2023/11/09 07:42:47;;;;;;;4.72;4.53;;;;;;;;;;6283300;28;20298;-72
2023/11/09 07:45:51;;;;;;;5.03;4.72;;;;;;;;;;6283773;28;20291;-71
2023/11/09 07:48:57;;;;;;;5.85;5.15;;;;;;;;;;6283628;28;20303;-71
2023/11/09 07:52:03;;;;;;;10.55;5.28;;;;;;;;;;6281721;28;20370;-71
2023/11/09 07:55:10;;;;;;;7.10;4.90;;;;;;;;;;6282910;28;20326;-71
2023/11/09 07:58:14;;;;;;;5.57;5.07;;;;;;;;;;6282767;28;20303;-71
2023/11/09 08:01:18;;;;;;;7.57;5.18;;;;;;;;;;6282892;28;20382;-70
2023/11/09 08:04:27;;;;;;;7.55;4.40;;;;;;;;;;6282726;28;20479;-71
2023/11/09 08:07:31;;;;;;;5.22;4.82;;;;;;;;;;6282296;28;20291;-72
2023/11/09 08:10:35;;;;;;;4.30;4.10;;;;;;;;;;6292096;28;20301;-69
2023/11/09 08:13:39;;;;;;;6.75;4.00;;;;;;;;;;6307167;28;20322;-70
2023/11/09 08:16:43;;;;;;;6.38;4.00;;;;;;;;;;6307695;28;20282;-70
2023/11/09 08:19:49;;;;;;;4.30;3.63;;;;;;;;;;6307073;28;20480;-70
2023/11/09 08:22:53;;;;;;;3.80;3.60;;;;;;;;;;6306988;28;20389;-70
2023/11/09 08:25:57;;;;;;;3.70;3.55;;;;;;;;;;6307234;28;20302;-71
2023/11/09 08:29:01;;;;;;;3.63;3.50;;;;;;;;;;6306787;28;20310;-72
2023/11/09 08:32:07;;;;;;;3.30;3.05;;;;;;;;;;6307096;28;20294;-70
2023/11/09 08:35:13;;;;;;;2.70;2.70;;;;;;;;;;6306448;28;20314;-70
2023/11/09 08:38:16;;;;;;;2.80;2.60;;;;;;;;;;6306818;28;20346;-70
2023/11/09 08:41:21;;;;;;;2.90;2.90;;;;;;;;;;6307109;28;20377;-70
2023/11/09 08:44:25;;;;;;;3.47;2.88;;;;;;;;;;6306103;28;20306;-70
2023/11/09 08:47:28;;;;;;;3.38;3.08;;;;;;;;;;6306340;28;20310;-70
2023/11/09 08:50:36;;;;;;;8.93;3.30;;;;;;;;;;6306496;28;20294;-70
2023/11/09 08:53:40;;;;;;;2.63;2.53;;;;;;;;;;6304338;28;20301;-70
2023/11/09 08:56:44;;;;;;;2.60;2.40;;;;;;;;;;6306728;28;20298;-72
2023/11/09 08:59:50;;;;;;;2.60;2.60;;;;;;;;;;6305892;28;20303;-70
2023/11/09 09:02:54;;;;;;;3.08;2.70;;;;;;;;;;6305467;28;20294;-70
2023/11/09 09:05:59;;;;;;;2.40;2.25;;;;;;;;;;6306433;28;20587;-70
2023/11/09 09:09:04;;;;;;;2.80;2.60;;;;;;;;;;6304356;28;20426;-70
2023/11/09 09:12:10;;;;;;;2.63;2.42;;;;;;;;;;6283590;28;20298;-71
2023/11/09 09:15:16;;;;;;;3.30;2.40;;;;;;;;;;6280138;28;20315;-69
2023/11/09 09:18:20;;;;;;;2.00;2.00;;;;;;;;;;6280936;28;20303;-70
2023/11/09 09:21:25;;;;;;;2.03;2.03;;;;;;;;;;6281085;28;20362;-71
2023/11/09 09:24:29;;;;;;;1.83;1.83;;;;;;;;;;6280245;28;20294;-70
2023/11/09 09:27:33;;;;;;;2.13;2.03;;;;;;;;;;6280789;28;20307;-71
2023/11/09 09:30:37;;;;;;;2.05;2.05;;;;;;;;;;6281371;28;20286;-70
2023/11/09 09:33:41;;;;;;;1.85;1.85;;;;;;;;;;6280428;28;20306;-71
2023/11/09 09:36:47;;;;;;;3.22;1.83;;;;;;;;;;6281180;28;20282;-70
2023/11/09 09:39:52;;;;;;;2.20;2.10;;;;;;;;;;6280752;28;20283;-70
2023/11/09 09:42:58;;;;;;;1.80;1.80;;;;;;;;;;6280420;28;20299;-69
2023/11/09 09:46:02;;;;;;;2.00;1.90;;;;;;;;;;6280727;28;20302;-70
2023/11/09 09:49:06;;;;;;;2.00;2.00;;;;;;;;;;6280096;28;20310;-70
2023/11/09 09:52:11;;;;;;;2.17;2.08;;;;;;;;;;6278660;28;20291;-70
2023/11/09 09:55:18;;;;;;;2.28;2.05;;;;;;;;;;6280286;28;20302;-70
2023/11/09 09:58:22;;;;;;;2.60;2.10;;;;;;;;;;6280456;28;20397;-71
2023/11/09 10:01:27;;;;;;;2.00;1.90;;;;;;;;;;6280748;28;20298;-70
2023/11/09 10:04:31;;;;;;;1.77;1.70;;;;;;;;;;6280152;28;20345;-71
2023/11/09 10:07:37;;;;;;;1.50;1.50;;;;;;;;;;6279113;28;20286;-70
2023/11/09 10:10:42;;;;;;;1.80;1.70;;;;;;;;;;6290940;28;20291;-70
2023/11/09 10:13:51;;;;;;;3.92;2.05;;;;;;;;;;6305035;28;20294;-71
2023/11/09 10:16:57;;;;;;;1.75;1.75;;;;;;;;;;6305342;28;20362;-70
2023/11/09 10:20:00;;;;;;;1.65;1.65;;;;;;;;;;6304913;28;20302;-71
2023/11/09 10:23:06;;;;;;;2.65;1.88;;;;;;;;;;6302979;28;20317;-71
2023/11/09 10:26:11;;;;;;;1.38;1.38;;;;;;;;;;6306188;28;20586;-71
2023/11/09 10:29:19;;;;;;;1.50;1.50;;;;;;;;;;6305156;28;20306;-71
2023/11/09 10:32:23;;;;;;;2.22;1.65;;;;;;;;;;6305710;28;20322;-71
2023/11/09 10:35:27;;;;;;;1.60;1.60;;;;;;;;;;6305902;28;20297;-72
2023/11/09 10:38:32;;;;;;;1.33;1.33;;;;;;;;;;6308609;28;20302;-70
2023/11/09 10:41:37;;;;;;;1.80;1.80;;;;;;;;;;6309796;28;20302;-71
2023/11/09 10:45:02;;;;;;;2.03;1.63;;;;;;;;;;6307864;28;20490;-72
2023/11/09 10:48:08;;;;;;;7.18;2.65;;;;;;;;;;6309530;28;20619;-71
2023/11/09 10:51:12;;;;;;;6.05;2.67;;;;;;;;;;6308841;28;20449;-71
2023/11/09 10:54:17;;;;;;;1.50;1.50;;;;;;;;;;6306550;28;20321;-71
2023/11/09 10:57:21;;;;;;;1.67;1.67;;;;;;;;;;6284831;28;20239;-70
2023/11/09 11:00:31;;;;;;;1.63;1.63;;;;;;;;;;6284114;28;20295;-71
2023/11/09 11:03:38;;;;;;;1.27;1.27;;;;;;;;;;6283696;28;20490;-71
2023/11/09 11:06:50;;;;;;;1.60;1.60;;;;;;;;;;6284762;28;20287;-70
2023/11/09 11:09:57;;;;;;;1.55;1.50;;;;;;;;;;6280128;28;20292;-70
2023/11/09 11:13:05;;;;;;;3.47;1.60;;;;;;;;;;6258863;28;20295;-70
2023/11/09 11:16:27;;;;;;;1.48;1.33;;;;;;;;;;6260319;28;20315;-68
2023/11/09 11:20:16;;;;;;;3.33;1.60;;;;;;;;;;6260540;28;20565;-70
2023/11/09 11:24:04;;;;;;;2.17;1.98;;;;;;;;;;6258260;28;20307;-70
2023/11/09 11:27:14;;;;;;;1.52;1.52;;;;;;;;;;6263958;28;20307;-70
2023/11/09 11:30:28;;;;;;;1.73;1.73;;;;;;;;;;6282608;28;20326;-69
2023/11/09 11:33:31;;;;;;;1.50;1.50;;;;;;;;;;6282989;28;20294;-70
2023/11/09 11:36:36;;;;;;;1.48;1.40;;;;;;;;;;6283567;28;20358;-69
2023/11/09 11:39:40;;;;;;;1.90;1.80;;;;;;;;;;6282882;28;20294;-70
2023/11/09 11:42:45;;;;;;;2.53;2.08;;;;;;;;;;6283233;28;20307;-69
2023/11/09 11:45:50;;;;;;;2.30;1.90;;;;;;;;;;6282593;28;20300;-70
2023/11/09 11:48:57;;;;;;;1.88;1.70;;;;;;;;;;6281684;28;20299;-71
2023/11/09 11:52:02;;;;;;;3.05;2.40;;;;;;;;;;6281443;28;20300;-70
2023/11/09 11:55:10;;;;;;;2.10;2.00;;;;;;;;;;6282892;28;20599;-68
2023/11/09 11:58:18;;;;;;;2.00;1.90;;;;;;;;;;6282688;28;20287;-70
2023/11/09 12:01:23;;;;;;;2.10;2.00;;;;;;;;;;6283215;28;20302;-70
2023/11/09 12:04:38;;;;;;;2.10;1.95;;;;;;;;;;6282720;28;20265;-69
2023/11/09 12:07:43;;;;;;;2.70;2.20;;;;;;;;;;6282799;28;20326;-70
2023/11/09 12:10:47;;;;;;;2.00;1.95;;;;;;;;;;6282853;28;20290;-70
2023/11/09 12:13:54;;;;;;;2.22;1.90;;;;;;;;;;6282666;28;20295;-70
2023/11/09 12:16:58;;;;;;;1.98;1.88;;;;;;;;;;6283208;28;20306;-72
2023/11/09 12:20:10;;;;;;;2.33;2.33;;;;;;;;;;6282916;28;20433;-70
2023/11/09 12:23:16;;;;;;;2.20;2.10;;;;;;;;;;6282537;28;20299;-73
2023/11/09 12:26:20;;;;;;;3.30;2.08;;;;;;;;;;6282685;28;20391;-70
2023/11/09 12:29:28;;;;;;;2.50;2.33;;;;;;;;;;6281956;28;20439;-70
2023/11/09 12:32:32;;;;;;;2.55;2.40;;;;;;;;;;6282229;28;20332;-70
2023/11/09 12:35:36;;;;;;;2.53;2.38;;;;;;;;;;6282169;28;20294;-70
2023/11/09 12:38:40;;;;;;;2.60;2.40;;;;;;;;;;6282286;28;20302;-71
2023/11/09 12:41:44;;;;;;;3.28;3.08;;;;;;;;;;6282841;28;20295;-70
2023/11/09 12:44:49;;;;;;;2.90;2.80;;;;;;;;;;6281957;28;20438;-71
2023/11/09 12:47:56;;;;;;;2.97;2.75;;;;;;;;;;6281531;28;20282;-70
2023/11/09 12:51:00;;;;;;;3.85;3.53;;;;;;;;;;6282099;28;20286;-72
2023/11/09 12:54:05;;;;;;;9.07;3.60;;;;;;;;;;6280160;28;20520;-72
2023/11/09 12:57:11;;;;;;;4.30;3.20;;;;;;;;;;6281209;28;20623;-71
2023/11/09 13:00:23;;;;;;;3.42;3.13;;;;;;;;;;6280536;28;20232;-70
2023/11/09 13:03:27;;;;;;;3.58;3.20;;;;;;;;;;6281196;28;20298;-71
2023/11/09 13:06:31;;;;;;;6.05;3.15;;;;;;;;;;6281562;28;20306;-69
2023/11/09 13:09:38;;;;;;;3.45;3.25;;;;;;;;;;6281007;28;20497;-71
2023/11/09 13:12:44;;;;;;;5.60;2.97;;;;;;;;;;6285435;28;20309;-70
2023/11/09 13:15:50;;;;;;;3.63;3.15;;;;;;;;;;6306374;28;20495;-72
2023/11/09 13:18:55;;;;;;;6.35;3.30;;;;;;;;;;6305672;28;20298;-69
2023/11/09 13:22:00;;;;;;;13.38;3.60;;;;;;;;;;6305798;28;20361;-71
2023/11/09 13:25:04;;;;;;;3.47;3.03;;;;;;;;;;6305448;28;20305;-70
2023/11/09 13:28:10;;;;;;;3.47;3.22;;;;;;;;;;6305388;28;20294;-71
2023/11/09 13:31:20;;;;;;;4.20;3.10;;;;;;;;;;6305469;28;20318;-72
2023/11/09 13:34:40;;;;;;;7.82;3.45;;;;;;;;;;6304818;28;20298;-70
2023/11/09 13:37:55;;;;;;;7.15;3.60;;;;;;;;;;6305234;28;20303;-72
2023/11/09 13:41:18;;;;;;;6.35;3.55;;;;;;;;;;6305663;28;20290;-71
2023/11/09 13:44:24;;;;;;;3.83;3.50;;;;;;;;;;6305177;28;20362;-70
2023/11/09 13:47:29;;;;;;;5.40;3.58;;;;;;;;;;6305499;28;20306;-70
2023/11/09 13:50:36;;;;;;;5.70;3.80;;;;;;;;;;6305167;28;20302;-71
2023/11/09 13:53:48;;;;;;;5.75;3.83;;;;;;;;;;6303476;28;20302;-70
2023/11/09 13:57:18;;;;;;;7.93;4.15;;;;;;;;;;6305490;28;20305;-70
2023/11/09 14:00:35;;;;;;;5.85;4.30;;;;;;;;;;6302658;28;20447;-69
2023/11/09 14:03:42;;;;;;;5.97;3.85;;;;;;;;;;6280545;28;20307;-70
2023/11/09 14:06:47;;;;;;;6.90;4.03;;;;;;;;;;6280681;28;20299;-71
2023/11/09 14:09:51;;;;;;;7.50;4.43;;;;;;;;;;6278596;28;20287;-70
2023/11/09 14:12:57;;;;;;;4.28;3.75;;;;;;;;;;6260637;28;20445;-69
2023/11/09 14:16:15;;;;;;;4.55;4.07;;;;;;;;;;6260888;28;20291;-70
2023/11/09 14:19:22;;;;;;;6.00;4.43;;;;;;;;;;6260376;28;20300;-70
2023/11/09 14:22:28;;;;;;;6.00;4.30;;;;;;;;;;6260700;28;20303;-71
2023/11/09 14:25:33;;;;;;;7.70;4.35;;;;;;;;;;6260342;28;20307;-70
2023/11/09 14:28:37;;;;;;;5.03;4.63;;;;;;;;;;6260244;28;20292;-72
2023/11/09 14:31:40;;;;;;;9.07;4.63;;;;;;;;;;6260837;28;20290;-70
2023/11/09 14:34:47;;;;;;;7.18;4.70;;;;;;;;;;6260058;28;20328;-70
2023/11/09 14:37:51;;;;;;;8.90;5.15;;;;;;;;;;6259860;28;20303;-71
2023/11/09 14:40:57;;;;;;;9.55;5.13;;;;;;;;;;6260047;28;20283;-70
2023/11/09 14:44:02;;;;;;;5.47;4.68;;;;;;;;;;6258670;28;20485;-70
2023/11/09 14:47:06;;;;;;;8.82;5.28;;;;;;;;;;6260322;28;20303;-70
2023/11/09 14:50:18;;;;;;;6.13;4.93;;;;;;;;;;6260263;28;20307;-71
2023/11/09 14:53:24;;;;;;;10.30;5.40;;;;;;;;;;6257170;28;20291;-70
2023/11/09 14:56:39;;;;;;;7.22;5.82;;;;;;;;;;6258846;28;20371;-71
2023/11/09 14:59:44;;;;;;;10.18;6.18;;;;;;;;;;6259626;28;20318;-67
2023/11/09 15:02:49;;;;;;;6.72;5.70;;;;;;;;;;6258549;28;20300;-69
2023/11/09 15:05:56;;;;;;;14.18;6.18;;;;;;;;;;6259647;28;20295;-69
2023/11/09 15:09:09;;;;;;;9.80;5.70;;;;;;;;;;6259281;28;20580;-74
2023/11/09 15:12:13;;;;;;;10.50;5.80;;;;;;;;;;6283702;28;20595;-70
2023/11/09 15:15:17;;;;;;;7.38;5.85;;;;;;;;;;6283537;28;20591;-70
2023/11/09 15:18:22;;;;;;;6.35;5.63;;;;;;;;;;6283679;28;20588;-70
2023/11/09 15:21:29;;;;;;;12.48;5.43;;;;;;;;;;6282986;28;20422;-72
2023/11/09 15:24:32;;;;;;;6.60;5.30;;;;;;;;;;6283781;28;20291;-69
2023/11/09 15:27:40;;;;;;;11.05;5.38;;;;;;;;;;6283407;28;20584;-69
2023/11/09 15:30:43;;;;;;;8.93;5.72;;;;;;;;;;6283914;28;20295;-70
2023/11/09 15:33:47;;;;;;;6.45;5.63;;;;;;;;;;6283317;28;20292;-70
2023/11/09 15:36:52;;;;;;;9.10;6.10;;;;;;;;;;6283533;28;20307;-69
2023/11/09 15:39:56;;;;;;;9.15;5.40;;;;;;;;;;6283235;28;20307;-70
2023/11/09 15:43:20;;;;;;;5.95;5.32;;;;;;;;;;6281893;28;20342;-70
2023/11/09 15:46:24;;;;;;;11.20;5.20;;;;;;;;;;6282957;28;20283;-71
2023/11/09 15:49:30;;;;;;;10.32;5.28;;;;;;;;;;6281678;28;20318;-70
2023/11/09 15:52:35;;;;;;;10.15;4.80;;;;;;;;;;6281226;28;20283;-70
2023/11/09 15:55:39;;;;;;;6.63;4.68;;;;;;;;;;6283140;28;20304;-71
2023/11/09 15:58:46;;;;;;;5.22;4.75;;;;;;;;;;6282652;28;20379;-70
2023/11/09 16:01:50;;;;;;;6.03;4.55;;;;;;;;;;6283053;28;20618;-70
2023/11/09 16:04:55;;;;;;;8.60;4.35;;;;;;;;;;6282877;28;20318;-70
2023/11/09 16:08:04;;;;;;;8.77;5.03;;;;;;;;;;6282586;28;20294;-71
2023/11/09 16:11:09;;;;;;;6.53;4.97;;;;;;;;;;6282788;28;20659;-71
2023/11/09 16:14:13;;;;;;;11.63;4.35;;;;;;;;;;6299198;28;20602;-71
2023/11/09 16:17:18;;;;;;;13.20;4.80;;;;;;;;;;6307744;28;20294;-70
2023/11/09 16:20:29;;;;;;;9.60;4.63;;;;;;;;;;6307020;28;20542;-72
2023/11/09 16:23:38;;;;;;;12.85;4.22;;;;;;;;;;6305903;28;20302;-68
2023/11/09 16:26:43;;;;;;;8.75;4.40;;;;;;;;;;6307271;28;20286;-69
2023/11/09 16:29:47;;;;;;;5.65;4.38;;;;;;;;;;6306962;28;20342;-70
2023/11/09 16:32:51;;;;;;;6.68;4.25;;;;;;;;;;6306736;28;20302;-70
2023/11/09 16:35:55;;;;;;;6.45;4.20;;;;;;;;;;6307144;28;20614;-71
2023/11/09 16:39:00;;;;;;;10.45;4.28;;;;;;;;;;6306440;28;20393;-70
2023/11/09 16:42:04;;;;;;;9.15;4.10;;;;;;;;;;6307032;28;20302;-71
2023/11/09 16:45:08;;;;;;;8.27;3.75;;;;;;;;;;6306563;28;20310;-69
2023/11/09 16:48:12;;;;;;;10.52;4.10;;;;;;;;;;6305820;28;20396;-71
2023/11/09 16:51:16;;;;;;;3.97;3.63;;;;;;;;;;6282676;28;20264;-70
2023/11/09 16:54:21;;;;;;;7.75;4.47;;;;;;;;;;6280067;28;20287;-69
2023/11/09 16:57:25;;;;;;;7.53;4.28;;;;;;;;;;6282340;28;20243;-72
2023/11/09 17:00:28;;;;;;;6.57;4.20;;;;;;;;;;6281766;28;20329;-71
2023/11/09 17:03:32;;;;;;;6.75;4.40;;;;;;;;;;6281203;28;20286;-70
2023/11/09 17:06:36;;;;;;;10.93;4.03;;;;;;;;;;6281717;28;20283;-70
2023/11/09 17:09:41;;;;;;;7.15;4.22;;;;;;;;;;6279115;28;20287;-70
2023/11/09 17:12:45;;;;;;;15.38;4.22;;;;;;;;;;6256415;28;20297;-71
2023/11/09 17:15:49;;;;;;;6.78;4.10;;;;;;;;;;6257381;28;20287;-68
2023/11/09 17:18:54;;;;;;;9.40;4.00;;;;;;;;;;6256140;28;20287;-70
2023/11/09 17:21:57;;;;;;;5.13;3.83;;;;;;;;;;6256003;28;20326;-69
2023/11/09 17:25:03;;;;;;;5.68;3.92;;;;;;;;;;6255877;28;20291;-70
2023/11/09 17:28:07;;;;;;;4.15;3.67;;;;;;;;;;6255819;28;20296;-70
2023/11/09 17:31:10;;;;;;;5.70;3.90;;;;;;;;;;6256383;28;20315;-70
2023/11/09 17:34:19;;;;;;;6.15;3.70;;;;;;;;;;6255852;28;20498;-71
2023/11/09 17:37:22;;;;;;;10.07;4.00;;;;;;;;;;6245538;28;20304;-69
2023/11/09 17:40:28;;;;;;;4.43;3.78;;;;;;;;;;6231153;28;20588;-69
2023/11/09 17:43:32;;;;;;;4.75;3.88;;;;;;;;;;6230823;28;20328;-69
2023/11/09 17:46:36;;;;;;;5.85;3.50;;;;;;;;;;6231190;28;20304;-70
2023/11/09 17:49:39;;;;;;;6.65;3.75;;;;;;;;;;6230770;28;20309;-70
2023/11/09 17:52:46;;;;;;;4.68;3.90;;;;;;;;;;6228983;28;20304;-69
2023/11/09 17:55:52;;;;;;;3.85;3.65;;;;;;;;;;6231163;28;20292;-69
2023/11/09 17:58:57;;;;;;;7.47;3.67;;;;;;;;;;6230627;28;20316;-70
2023/11/09 18:02:03;;;;;;;5.35;3.67;;;;;;;;;;6231243;28;20570;-71
2023/11/09 18:05:10;;;;;;;4.75;3.05;;;;;;;;;;6230880;28;20301;-69
2023/11/09 18:08:15;;;;;;;3.47;3.17;;;;;;;;;;6230814;28;20317;-70
2023/11/09 18:11:25;;;;;;;3.47;3.10;;;;;;;;;;6262545;28;20314;-70
2023/11/09 18:14:44;;;;;;;4.95;2.72;;;;;;;;;;6279665;28;20310;-73
2023/11/09 18:17:48;;;;;;;3.72;2.90;;;;;;;;;;6279779;28;20290;-70
2023/11/09 18:20:52;;;;;;;2.60;2.40;;;;;;;;;;6280066;28;20337;-69
2023/11/09 18:23:57;;;;;;;3.10;2.40;;;;;;;;;;6279781;28;20287;-70
2023/11/09 18:27:03;;;;;;;2.30;2.20;;;;;;;;;;6280026;28;20287;-71
2023/11/09 18:30:09;;;;;;;3.03;2.92;;;;;;;;;;6279719;28;20810;-69
2023/11/09 18:33:13;;;;;;;5.10;3.05;;;;;;;;;;6302366;28;20451;-70
2023/11/09 18:36:17;;;;;;;4.15;2.65;;;;;;;;;;6279875;28;20255;-70
2023/11/09 18:39:21;;;;;;;5.07;2.95;;;;;;;;;;6279459;28;20452;-70